sensor_id;sensor_type;location;lat;lon;timestamp;P1;durP1;ratioP1;P2;durP2;ratioP2
63259;SDS011;49390;51.380;0.098;2022-10-16T00:00:02;13.20;;;3.05;;
63259;SDS011;49390;51.380;0.098;2022-10-16T00:02:54;9.13;;;2.80;;
63259;SDS011;49390;51.380;0.098;2022-10-16T00:05:22;12.50;;;2.40;;
63259;SDS011;49390;51.380;0.098;2022-10-16T00:07:51;11.68;;;4.45;;
63259;SDS011;49390;51.380;0.098;2022-10-16T00:10:19;10.10;;;2.88;;
63259;SDS011;49390;51.380;0.098;2022-10-16T00:12:48;15.63;;;2.88;;
63259;SDS011;49390;51.380;0.098;2022-10-16T00:15:22;9.35;;;2.47;;
63259;SDS011;49390;51.380;0.098;2022-10-16T00:17:51;10.45;;;2.72;;
63259;SDS011;49390;51.380;0.098;2022-10-16T00:20:18;13.93;;;3.35;;
63259;SDS011;49390;51.380;0.098;2022-10-16T00:23:09;11.68;;;3.47;;
63259;SDS011;49390;51.380;0.098;2022-10-16T00:25:38;10.32;;;2.70;;
63259;SDS011;49390;51.380;0.098;2022-10-16T00:28:06;13.50;;;2.97;;
63259;SDS011;49390;51.380;0.098;2022-10-16T00:30:37;13.85;;;2.83;;
63259;SDS011;49390;51.380;0.098;2022-10-16T00:33:08;16.17;;;3.25;;
63259;SDS011;49390;51.380;0.098;2022-10-16T00:35:36;13.82;;;2.72;;
63259;SDS011;49390;51.380;0.098;2022-10-16T00:38:05;13.70;;;2.75;;
63259;SDS011;49390;51.380;0.098;2022-10-16T00:40:33;10.30;;;2.58;;
63259;SDS011;49390;51.380;0.098;2022-10-16T00:43:01;11.68;;;2.38;;
63259;SDS011;49390;51.380;0.098;2022-10-16T00:45:28;15.40;;;3.40;;
63259;SDS011;49390;51.380;0.098;2022-10-16T00:47:58;13.00;;;2.78;;
63259;SDS011;49390;51.380;0.098;2022-10-16T00:50:33;12.98;;;2.50;;
63259;SDS011;49390;51.380;0.098;2022-10-16T00:53:01;10.02;;;2.75;;
63259;SDS011;49390;51.380;0.098;2022-10-16T00:55:30;11.40;;;2.60;;
63259;SDS011;49390;51.380;0.098;2022-10-16T00:57:58;9.40;;;2.40;;
63259;SDS011;49390;51.380;0.098;2022-10-16T01:00:29;12.23;;;3.00;;
63259;SDS011;49390;51.380;0.098;2022-10-16T01:03:00;11.57;;;2.80;;
63259;SDS011;49390;51.380;0.098;2022-10-16T01:05:34;15.07;;;2.78;;
63259;SDS011;49390;51.380;0.098;2022-10-16T01:08:13;15.88;;;2.88;;
63259;SDS011;49390;51.380;0.098;2022-10-16T01:10:51;12.75;;;2.80;;
63259;SDS011;49390;51.380;0.098;2022-10-16T01:13:25;16.90;;;2.92;;
63259;SDS011;49390;51.380;0.098;2022-10-16T01:16:21;13.05;;;2.30;;
63259;SDS011;49390;51.380;0.098;2022-10-16T01:19:01;12.68;;;2.92;;
63259;SDS011;49390;51.380;0.098;2022-10-16T01:21:44;9.15;;;2.40;;
63259;SDS011;49390;51.380;0.098;2022-10-16T01:24:40;7.80;;;2.08;;
63259;SDS011;49390;51.380;0.098;2022-10-16T01:29:59;12.20;;;2.67;;
63259;SDS011;49390;51.380;0.098;2022-10-16T01:32:36;14.40;;;2.85;;
63259;SDS011;49390;51.380;0.098;2022-10-16T01:40:26;13.10;;;2.75;;
63259;SDS011;49390;51.380;0.098;2022-10-16T01:43:03;10.63;;;3.30;;
63259;SDS011;49390;51.380;0.098;2022-10-16T01:45:35;14.27;;;3.53;;
63259;SDS011;49390;51.380;0.098;2022-10-16T01:48:04;11.15;;;2.90;;
63259;SDS011;49390;51.380;0.098;2022-10-16T01:50:36;10.30;;;2.72;;
63259;SDS011;49390;51.380;0.098;2022-10-16T01:53:08;12.70;;;2.70;;
63259;SDS011;49390;51.380;0.098;2022-10-16T01:55:40;12.77;;;3.08;;
63259;SDS011;49390;51.380;0.098;2022-10-16T01:58:13;12.18;;;2.97;;
63259;SDS011;49390;51.380;0.098;2022-10-16T02:00:43;14.10;;;3.38;;
63259;SDS011;49390;51.380;0.098;2022-10-16T02:03:14;12.20;;;2.70;;
63259;SDS011;49390;51.380;0.098;2022-10-16T02:05:52;13.82;;;3.70;;
63259;SDS011;49390;51.380;0.098;2022-10-16T02:08:22;12.15;;;3.08;;
63259;SDS011;49390;51.380;0.098;2022-10-16T02:10:54;16.05;;;3.42;;
63259;SDS011;49390;51.380;0.098;2022-10-16T02:13:26;14.33;;;2.97;;
63259;SDS011;49390;51.380;0.098;2022-10-16T02:16:02;11.40;;;2.60;;
63259;SDS011;49390;51.380;0.098;2022-10-16T02:18:31;12.00;;;2.45;;
63259;SDS011;49390;51.380;0.098;2022-10-16T02:21:19;9.85;;;2.67;;
63259;SDS011;49390;51.380;0.098;2022-10-16T02:26:52;10.75;;;3.47;;
63259;SDS011;49390;51.380;0.098;2022-10-16T02:29:32;11.68;;;2.22;;
63259;SDS011;49390;51.380;0.098;2022-10-16T02:32:03;8.47;;;2.47;;
63259;SDS011;49390;51.380;0.098;2022-10-16T02:34:33;10.60;;;3.03;;
63259;SDS011;49390;51.380;0.098;2022-10-16T02:37:02;13.13;;;4.65;;
63259;SDS011;49390;51.380;0.098;2022-10-16T02:39:36;11.18;;;2.60;;
63259;SDS011;49390;51.380;0.098;2022-10-16T02:42:10;11.30;;;3.20;;
63259;SDS011;49390;51.380;0.098;2022-10-16T02:44:41;9.73;;;2.78;;
63259;SDS011;49390;51.380;0.098;2022-10-16T02:47:09;9.63;;;2.13;;
63259;SDS011;49390;51.380;0.098;2022-10-16T02:49:41;8.88;;;1.88;;
63259;SDS011;49390;51.380;0.098;2022-10-16T02:52:09;11.02;;;2.75;;
63259;SDS011;49390;51.380;0.098;2022-10-16T02:54:38;6.28;;;2.33;;
63259;SDS011;49390;51.380;0.098;2022-10-16T02:57:06;10.38;;;2.22;;
63259;SDS011;49390;51.380;0.098;2022-10-16T02:59:34;10.13;;;2.00;;
63259;SDS011;49390;51.380;0.098;2022-10-16T03:02:01;10.27;;;2.53;;
63259;SDS011;49390;51.380;0.098;2022-10-16T03:04:30;12.25;;;2.15;;
63259;SDS011;49390;51.380;0.098;2022-10-16T03:07:00;12.20;;;2.50;;
63259;SDS011;49390;51.380;0.098;2022-10-16T03:09:29;10.82;;;2.17;;
63259;SDS011;49390;51.380;0.098;2022-10-16T03:11:57;8.85;;;1.95;;
63259;SDS011;49390;51.380;0.098;2022-10-16T03:14:25;9.48;;;2.20;;
63259;SDS011;49390;51.380;0.098;2022-10-16T03:16:58;10.93;;;2.20;;
63259;SDS011;49390;51.380;0.098;2022-10-16T03:19:26;8.25;;;2.33;;
63259;SDS011;49390;51.380;0.098;2022-10-16T03:21:54;11.80;;;2.25;;
63259;SDS011;49390;51.380;0.098;2022-10-16T03:24:25;12.05;;;2.67;;
63259;SDS011;49390;51.380;0.098;2022-10-16T03:26:53;14.93;;;2.28;;
63259;SDS011;49390;51.380;0.098;2022-10-16T03:29:22;10.38;;;2.00;;
63259;SDS011;49390;51.380;0.098;2022-10-16T03:31:50;8.30;;;1.80;;
63259;SDS011;49390;51.380;0.098;2022-10-16T03:34:19;9.77;;;2.08;;
63259;SDS011;49390;51.380;0.098;2022-10-16T03:36:48;6.18;;;1.80;;
63259;SDS011;49390;51.380;0.098;2022-10-16T03:39:16;6.10;;;1.85;;
63259;SDS011;49390;51.380;0.098;2022-10-16T03:41:45;7.03;;;2.08;;
63259;SDS011;49390;51.380;0.098;2022-10-16T03:44:13;6.90;;;2.00;;
63259;SDS011;49390;51.380;0.098;2022-10-16T03:46:42;8.88;;;2.35;;
63259;SDS011;49390;51.380;0.098;2022-10-16T03:51:41;10.48;;;2.40;;
63259;SDS011;49390;51.380;0.098;2022-10-16T03:54:11;8.73;;;2.08;;
63259;SDS011;49390;51.380;0.098;2022-10-16T03:56:39;7.45;;;1.92;;
63259;SDS011;49390;51.380;0.098;2022-10-16T03:59:07;10.85;;;2.53;;
63259;SDS011;49390;51.380;0.098;2022-10-16T04:01:36;12.20;;;2.70;;
63259;SDS011;49390;51.380;0.098;2022-10-16T04:04:04;10.60;;;2.15;;
63259;SDS011;49390;51.380;0.098;2022-10-16T04:06:33;13.75;;;2.30;;
63259;SDS011;49390;51.380;0.098;2022-10-16T04:09:04;10.93;;;2.35;;
63259;SDS011;49390;51.380;0.098;2022-10-16T04:11:34;10.45;;;2.20;;
63259;SDS011;49390;51.380;0.098;2022-10-16T04:14:03;9.40;;;2.10;;
63259;SDS011;49390;51.380;0.098;2022-10-16T04:16:31;11.48;;;2.65;;
63259;SDS011;49390;51.380;0.098;2022-10-16T04:18:59;16.38;;;3.22;;
63259;SDS011;49390;51.380;0.098;2022-10-16T04:21:28;10.10;;;2.75;;
63259;SDS011;49390;51.380;0.098;2022-10-16T04:23:56;16.58;;;2.67;;
63259;SDS011;49390;51.380;0.098;2022-10-16T04:26:26;8.88;;;1.90;;
63259;SDS011;49390;51.380;0.098;2022-10-16T04:28:55;14.02;;;2.50;;
63259;SDS011;49390;51.380;0.098;2022-10-16T04:31:23;8.00;;;2.10;;
63259;SDS011;49390;51.380;0.098;2022-10-16T04:33:52;9.48;;;2.47;;
63259;SDS011;49390;51.380;0.098;2022-10-16T04:36:20;15.23;;;2.35;;
63259;SDS011;49390;51.380;0.098;2022-10-16T04:38:53;15.57;;;2.92;;
63259;SDS011;49390;51.380;0.098;2022-10-16T04:41:21;9.77;;;2.20;;
63259;SDS011;49390;51.380;0.098;2022-10-16T04:43:49;13.20;;;2.83;;
63259;SDS011;49390;51.380;0.098;2022-10-16T04:46:17;14.73;;;2.40;;
63259;SDS011;49390;51.380;0.098;2022-10-16T04:48:45;8.82;;;2.40;;
63259;SDS011;49390;51.380;0.098;2022-10-16T04:51:16;11.60;;;3.13;;
63259;SDS011;49390;51.380;0.098;2022-10-16T04:53:46;10.63;;;2.20;;
63259;SDS011;49390;51.380;0.098;2022-10-16T04:56:14;12.15;;;2.40;;
63259;SDS011;49390;51.380;0.098;2022-10-16T04:58:42;14.70;;;3.63;;
63259;SDS011;49390;51.380;0.098;2022-10-16T05:01:10;5.95;;;2.05;;
63259;SDS011;49390;51.380;0.098;2022-10-16T05:03:38;12.00;;;2.60;;
63259;SDS011;49390;51.380;0.098;2022-10-16T05:06:07;10.68;;;2.38;;
63259;SDS011;49390;51.380;0.098;2022-10-16T05:08:35;10.25;;;2.50;;
63259;SDS011;49390;51.380;0.098;2022-10-16T05:11:03;9.13;;;3.13;;
63259;SDS011;49390;51.380;0.098;2022-10-16T05:13:31;13.40;;;2.15;;
63259;SDS011;49390;51.380;0.098;2022-10-16T05:16:00;9.18;;;2.05;;
63259;SDS011;49390;51.380;0.098;2022-10-16T05:18:29;8.32;;;2.20;;
63259;SDS011;49390;51.380;0.098;2022-10-16T05:20:57;9.73;;;2.15;;
63259;SDS011;49390;51.380;0.098;2022-10-16T05:23:25;8.77;;;2.70;;
63259;SDS011;49390;51.380;0.098;2022-10-16T05:25:56;10.45;;;2.08;;
63259;SDS011;49390;51.380;0.098;2022-10-16T05:28:26;8.63;;;2.25;;
63259;SDS011;49390;51.380;0.098;2022-10-16T05:30:56;10.27;;;2.20;;
63259;SDS011;49390;51.380;0.098;2022-10-16T05:33:29;7.13;;;2.97;;
63259;SDS011;49390;51.380;0.098;2022-10-16T05:36:00;9.77;;;1.98;;
63259;SDS011;49390;51.380;0.098;2022-10-16T05:38:29;22.55;;;3.33;;
63259;SDS011;49390;51.380;0.098;2022-10-16T05:40:57;12.48;;;2.10;;
63259;SDS011;49390;51.380;0.098;2022-10-16T05:43:29;13.35;;;2.50;;
63259;SDS011;49390;51.380;0.098;2022-10-16T05:45:59;10.55;;;2.38;;
63259;SDS011;49390;51.380;0.098;2022-10-16T05:48:29;10.55;;;2.22;;
63259;SDS011;49390;51.380;0.098;2022-10-16T05:51:02;8.20;;;2.10;;
63259;SDS011;49390;51.380;0.098;2022-10-16T05:53:37;10.20;;;2.33;;
63259;SDS011;49390;51.380;0.098;2022-10-16T05:58:39;8.68;;;2.10;;
63259;SDS011;49390;51.380;0.098;2022-10-16T06:01:12;8.75;;;2.30;;
63259;SDS011;49390;51.380;0.098;2022-10-16T06:03:47;7.75;;;2.00;;
63259;SDS011;49390;51.380;0.098;2022-10-16T06:06:21;9.43;;;2.10;;
63259;SDS011;49390;51.380;0.098;2022-10-16T06:08:51;7.93;;;2.35;;
63259;SDS011;49390;51.380;0.098;2022-10-16T06:11:24;12.02;;;2.58;;
63259;SDS011;49390;51.380;0.098;2022-10-16T06:13:55;13.43;;;2.97;;
63259;SDS011;49390;51.380;0.098;2022-10-16T06:16:25;13.43;;;2.63;;
63259;SDS011;49390;51.380;0.098;2022-10-16T06:18:54;6.78;;;1.70;;
63259;SDS011;49390;51.380;0.098;2022-10-16T06:21:27;15.45;;;2.20;;
63259;SDS011;49390;51.380;0.098;2022-10-16T06:23:56;11.10;;;2.28;;
63259;SDS011;49390;51.380;0.098;2022-10-16T06:26:25;12.82;;;3.63;;
63259;SDS011;49390;51.380;0.098;2022-10-16T06:28:55;9.88;;;2.10;;
63259;SDS011;49390;51.380;0.098;2022-10-16T06:31:26;10.77;;;3.10;;
63259;SDS011;49390;51.380;0.098;2022-10-16T06:33:58;8.50;;;2.22;;
63259;SDS011;49390;51.380;0.098;2022-10-16T06:36:26;5.95;;;2.08;;
63259;SDS011;49390;51.380;0.098;2022-10-16T06:38:54;8.32;;;2.22;;
63259;SDS011;49390;51.380;0.098;2022-10-16T06:41:25;15.23;;;2.33;;
63259;SDS011;49390;51.380;0.098;2022-10-16T06:43:53;13.60;;;2.97;;
63259;SDS011;49390;51.380;0.098;2022-10-16T06:46:23;13.05;;;2.50;;
63259;SDS011;49390;51.380;0.098;2022-10-16T06:48:52;9.15;;;2.35;;
63259;SDS011;49390;51.380;0.098;2022-10-16T06:51:21;9.95;;;2.30;;
63259;SDS011;49390;51.380;0.098;2022-10-16T06:53:53;10.30;;;2.75;;
63259;SDS011;49390;51.380;0.098;2022-10-16T06:56:32;10.32;;;2.15;;
63259;SDS011;49390;51.380;0.098;2022-10-16T06:59:03;11.23;;;2.13;;
63259;SDS011;49390;51.380;0.098;2022-10-16T07:01:32;8.98;;;2.13;;
63259;SDS011;49390;51.380;0.098;2022-10-16T07:04:00;7.40;;;1.95;;
63259;SDS011;49390;51.380;0.098;2022-10-16T07:06:31;14.70;;;2.75;;
63259;SDS011;49390;51.380;0.098;2022-10-16T07:09:05;10.43;;;2.25;;
63259;SDS011;49390;51.380;0.098;2022-10-16T07:11:35;8.27;;;1.98;;
63259;SDS011;49390;51.380;0.098;2022-10-16T07:14:11;6.10;;;1.88;;
63259;SDS011;49390;51.380;0.098;2022-10-16T07:16:45;7.50;;;2.42;;
63259;SDS011;49390;51.380;0.098;2022-10-16T07:19:16;10.45;;;2.47;;
63259;SDS011;49390;51.380;0.098;2022-10-16T07:21:45;9.98;;;2.30;;
63259;SDS011;49390;51.380;0.098;2022-10-16T07:24:14;7.63;;;2.22;;
63259;SDS011;49390;51.380;0.098;2022-10-16T07:26:44;5.00;;;2.00;;
63259;SDS011;49390;51.380;0.098;2022-10-16T07:29:14;12.40;;;2.45;;
63259;SDS011;49390;51.380;0.098;2022-10-16T07:34:13;6.68;;;2.20;;
63259;SDS011;49390;51.380;0.098;2022-10-16T07:36:41;13.30;;;2.50;;
63259;SDS011;49390;51.380;0.098;2022-10-16T07:39:10;11.88;;;2.35;;
63259;SDS011;49390;51.380;0.098;2022-10-16T07:41:37;10.23;;;2.28;;
63259;SDS011;49390;51.380;0.098;2022-10-16T07:44:05;8.70;;;2.63;;
63259;SDS011;49390;51.380;0.098;2022-10-16T07:46:36;11.57;;;2.58;;
63259;SDS011;49390;51.380;0.098;2022-10-16T07:49:06;11.77;;;2.50;;
63259;SDS011;49390;51.380;0.098;2022-10-16T07:51:34;11.13;;;2.20;;
63259;SDS011;49390;51.380;0.098;2022-10-16T07:54:02;9.32;;;2.80;;
63259;SDS011;49390;51.380;0.098;2022-10-16T07:56:33;9.10;;;2.93;;
63259;SDS011;49390;51.380;0.098;2022-10-16T08:33:06;9.90;;;2.47;;
63259;SDS011;49390;51.380;0.098;2022-10-16T08:35:37;13.18;;;3.00;;
63259;SDS011;49390;51.380;0.098;2022-10-16T08:38:06;15.30;;;2.58;;
63259;SDS011;49390;51.380;0.098;2022-10-16T08:40:35;11.25;;;3.00;;
63259;SDS011;49390;51.380;0.098;2022-10-16T08:43:18;11.45;;;2.50;;
63259;SDS011;49390;51.380;0.098;2022-10-16T08:48:53;13.07;;;2.78;;
63259;SDS011;49390;51.380;0.098;2022-10-16T08:51:27;10.02;;;2.60;;
63259;SDS011;49390;51.380;0.098;2022-10-16T08:56:33;12.63;;;2.88;;
63259;SDS011;49390;51.380;0.098;2022-10-16T08:59:02;9.77;;;2.30;;
63259;SDS011;49390;51.380;0.098;2022-10-16T09:01:38;12.68;;;2.47;;
63259;SDS011;49390;51.380;0.098;2022-10-16T09:13:14;10.35;;;2.20;;
63259;SDS011;49390;51.380;0.098;2022-10-16T09:16:08;8.90;;;2.78;;
63259;SDS011;49390;51.380;0.098;2022-10-16T09:18:50;8.55;;;2.20;;
63259;SDS011;49390;51.380;0.098;2022-10-16T09:21:33;10.85;;;2.70;;
63259;SDS011;49390;51.380;0.098;2022-10-16T09:24:13;10.25;;;2.28;;
63259;SDS011;49390;51.380;0.098;2022-10-16T09:26:43;8.88;;;2.92;;
63259;SDS011;49390;51.380;0.098;2022-10-16T09:29:14;11.35;;;2.75;;
63259;SDS011;49390;51.380;0.098;2022-10-16T09:31:52;8.85;;;2.47;;
63259;SDS011;49390;51.380;0.098;2022-10-16T09:34:32;8.15;;;2.20;;
63259;SDS011;49390;51.380;0.098;2022-10-16T09:37:04;8.10;;;2.70;;
63259;SDS011;49390;51.380;0.098;2022-10-16T09:39:50;7.90;;;2.20;;
63259;SDS011;49390;51.380;0.098;2022-10-16T09:42:30;13.27;;;2.35;;
63259;SDS011;49390;51.380;0.098;2022-10-16T09:44:59;9.07;;;1.97;;
63259;SDS011;49390;51.380;0.098;2022-10-16T09:47:28;11.50;;;2.22;;
63259;SDS011;49390;51.380;0.098;2022-10-16T09:49:59;15.00;;;2.67;;
63259;SDS011;49390;51.380;0.098;2022-10-16T09:55:08;8.43;;;1.98;;
63259;SDS011;49390;51.380;0.098;2022-10-16T09:57:52;8.60;;;1.92;;
63259;SDS011;49390;51.380;0.098;2022-10-16T10:00:24;9.73;;;2.28;;
63259;SDS011;49390;51.380;0.098;2022-10-16T10:02:53;8.82;;;2.47;;
63259;SDS011;49390;51.380;0.098;2022-10-16T10:05:24;10.27;;;3.00;;
63259;SDS011;49390;51.380;0.098;2022-10-16T10:07:58;9.40;;;2.03;;
63259;SDS011;49390;51.380;0.098;2022-10-16T10:10:30;8.38;;;1.88;;
63259;SDS011;49390;51.380;0.098;2022-10-16T10:13:03;8.02;;;2.38;;
63259;SDS011;49390;51.380;0.098;2022-10-16T10:15:33;10.93;;;4.70;;
63259;SDS011;49390;51.380;0.098;2022-10-16T10:18:14;11.68;;;2.42;;
63259;SDS011;49390;51.380;0.098;2022-10-16T10:20:56;8.75;;;2.20;;
63259;SDS011;49390;51.380;0.098;2022-10-16T10:23:28;10.52;;;1.80;;
63259;SDS011;49390;51.380;0.098;2022-10-16T10:37:34;10.63;;;2.97;;
63259;SDS011;49390;51.380;0.098;2022-10-16T10:40:21;10.80;;;2.17;;
63259;SDS011;49390;51.380;0.098;2022-10-16T10:45:54;5.80;;;2.20;;
63259;SDS011;49390;51.380;0.098;2022-10-16T10:51:22;10.68;;;2.20;;
63259;SDS011;49390;51.380;0.098;2022-10-16T10:57:02;9.77;;;2.13;;
63259;SDS011;49390;51.380;0.098;2022-10-16T11:02:30;11.27;;;2.13;;
63259;SDS011;49390;51.380;0.098;2022-10-16T11:08:16;6.20;;;1.92;;
63259;SDS011;49390;51.380;0.098;2022-10-16T11:16:13;7.22;;;2.20;;
63259;SDS011;49390;51.380;0.098;2022-10-16T11:19:14;8.40;;;2.30;;
63259;SDS011;49390;51.380;0.098;2022-10-16T11:21:49;7.85;;;2.33;;
63259;SDS011;49390;51.380;0.098;2022-10-16T11:24:45;5.82;;;2.15;;
63259;SDS011;49390;51.380;0.098;2022-10-16T11:27:41;6.78;;;2.13;;
63259;SDS011;49390;51.380;0.098;2022-10-16T11:38:36;9.85;;;2.33;;
63259;SDS011;49390;51.380;0.098;2022-10-16T11:41:15;12.95;;;2.20;;
63259;SDS011;49390;51.380;0.098;2022-10-16T11:44:12;12.63;;;2.50;;
63259;SDS011;49390;51.380;0.098;2022-10-16T11:49:59;11.88;;;3.15;;
63259;SDS011;49390;51.380;0.098;2022-10-16T11:52:39;9.98;;;2.13;;
63259;SDS011;49390;51.380;0.098;2022-10-16T11:55:27;11.90;;;2.90;;
63259;SDS011;49390;51.380;0.098;2022-10-16T12:08:55;8.40;;;2.10;;
63259;SDS011;49390;51.380;0.098;2022-10-16T12:19:22;8.23;;;2.60;;
63259;SDS011;49390;51.380;0.098;2022-10-16T12:21:54;10.23;;;2.50;;
63259;SDS011;49390;51.380;0.098;2022-10-16T12:24:35;12.30;;;2.60;;
63259;SDS011;49390;51.380;0.098;2022-10-16T12:27:05;13.23;;;2.47;;
63259;SDS011;49390;51.380;0.098;2022-10-16T12:29:48;11.77;;;2.40;;
63259;SDS011;49390;51.380;0.098;2022-10-16T12:32:35;10.52;;;2.60;;
63259;SDS011;49390;51.380;0.098;2022-10-16T12:35:18;13.63;;;2.85;;
63259;SDS011;49390;51.380;0.098;2022-10-16T12:40:14;9.07;;;2.55;;
63259;SDS011;49390;51.380;0.098;2022-10-16T12:42:58;13.05;;;2.50;;
63259;SDS011;49390;51.380;0.098;2022-10-16T12:48:00;10.90;;;2.60;;
63259;SDS011;49390;51.380;0.098;2022-10-16T12:50:34;13.80;;;2.70;;
63259;SDS011;49390;51.380;0.098;2022-10-16T12:53:16;9.38;;;3.10;;
63259;SDS011;49390;51.380;0.098;2022-10-16T12:58:59;8.77;;;2.60;;
63259;SDS011;49390;51.380;0.098;2022-10-16T13:01:40;14.30;;;3.00;;
63259;SDS011;49390;51.380;0.098;2022-10-16T13:04:40;13.25;;;3.03;;
63259;SDS011;49390;51.380;0.098;2022-10-16T13:12:50;12.65;;;3.40;;
63259;SDS011;49390;51.380;0.098;2022-10-16T13:15:51;11.02;;;2.45;;
63259;SDS011;49390;51.380;0.098;2022-10-16T13:29:22;13.52;;;3.30;;
63259;SDS011;49390;51.380;0.098;2022-10-16T13:31:51;13.10;;;2.95;;
63259;SDS011;49390;51.380;0.098;2022-10-16T13:34:20;19.52;;;3.72;;
63259;SDS011;49390;51.380;0.098;2022-10-16T13:36:51;11.05;;;3.30;;
63259;SDS011;49390;51.380;0.098;2022-10-16T13:39:37;12.25;;;3.35;;
63259;SDS011;49390;51.380;0.098;2022-10-16T13:42:07;8.88;;;3.28;;
63259;SDS011;49390;51.380;0.098;2022-10-16T13:44:43;11.55;;;3.38;;
63259;SDS011;49390;51.380;0.098;2022-10-16T13:47:17;11.60;;;3.35;;
63259;SDS011;49390;51.380;0.098;2022-10-16T13:49:46;13.30;;;3.22;;
63259;SDS011;49390;51.380;0.098;2022-10-16T13:52:26;15.30;;;3.92;;
63259;SDS011;49390;51.380;0.098;2022-10-16T13:54:57;10.88;;;4.18;;
63259;SDS011;49390;51.380;0.098;2022-10-16T13:57:28;12.55;;;4.10;;
63259;SDS011;49390;51.380;0.098;2022-10-16T13:59:56;13.70;;;3.58;;
63259;SDS011;49390;51.380;0.098;2022-10-16T14:02:29;18.65;;;4.50;;
63259;SDS011;49390;51.380;0.098;2022-10-16T14:05:02;15.98;;;4.25;;
63259;SDS011;49390;51.380;0.098;2022-10-16T14:07:32;14.05;;;4.03;;
63259;SDS011;49390;51.380;0.098;2022-10-16T14:10:06;15.20;;;4.40;;
63259;SDS011;49390;51.380;0.098;2022-10-16T14:12:55;10.60;;;3.70;;
63259;SDS011;49390;51.380;0.098;2022-10-16T14:15:29;13.43;;;3.53;;
63259;SDS011;49390;51.380;0.098;2022-10-16T14:18:02;13.02;;;3.60;;
63259;SDS011;49390;51.380;0.098;2022-10-16T14:20:34;11.20;;;3.05;;
63259;SDS011;49390;51.380;0.098;2022-10-16T14:23:48;11.35;;;2.60;;
63259;SDS011;49390;51.380;0.098;2022-10-16T14:28:37;11.00;;;3.20;;
63259;SDS011;49390;51.380;0.098;2022-10-16T14:31:27;14.15;;;3.13;;
63259;SDS011;49390;51.380;0.098;2022-10-16T14:33:58;12.68;;;2.92;;
63259;SDS011;49390;51.380;0.098;2022-10-16T14:36:27;10.18;;;2.65;;
63259;SDS011;49390;51.380;0.098;2022-10-16T14:41:45;11.65;;;3.10;;
63259;SDS011;49390;51.380;0.098;2022-10-16T14:44:15;12.93;;;3.20;;
63259;SDS011;49390;51.380;0.098;2022-10-16T14:46:45;9.10;;;2.50;;
63259;SDS011;49390;51.380;0.098;2022-10-16T14:49:17;10.40;;;2.53;;
63259;SDS011;49390;51.380;0.098;2022-10-16T14:51:48;12.98;;;2.95;;
63259;SDS011;49390;51.380;0.098;2022-10-16T14:54:19;13.00;;;3.10;;
63259;SDS011;49390;51.380;0.098;2022-10-16T15:01:46;14.77;;;4.22;;
63259;SDS011;49390;51.380;0.098;2022-10-16T15:04:17;13.97;;;3.00;;
63259;SDS011;49390;51.380;0.098;2022-10-16T15:06:45;13.13;;;3.30;;
63259;SDS011;49390;51.380;0.098;2022-10-16T15:09:14;11.30;;;2.80;;
63259;SDS011;49390;51.380;0.098;2022-10-16T15:11:42;9.60;;;2.80;;
63259;SDS011;49390;51.380;0.098;2022-10-16T15:14:16;11.07;;;4.50;;
63259;SDS011;49390;51.380;0.098;2022-10-16T15:16:46;13.52;;;3.38;;
63259;SDS011;49390;51.380;0.098;2022-10-16T15:19:14;12.55;;;3.22;;
63259;SDS011;49390;51.380;0.098;2022-10-16T15:21:44;15.82;;;3.30;;
63259;SDS011;49390;51.380;0.098;2022-10-16T15:24:13;19.10;;;3.35;;
63259;SDS011;49390;51.380;0.098;2022-10-16T15:26:46;9.60;;;3.17;;
63259;SDS011;49390;51.380;0.098;2022-10-16T15:29:16;10.70;;;3.20;;
63259;SDS011;49390;51.380;0.098;2022-10-16T15:31:43;10.55;;;3.60;;
63259;SDS011;49390;51.380;0.098;2022-10-16T15:34:15;12.10;;;3.45;;
63259;SDS011;49390;51.380;0.098;2022-10-16T15:36:46;24.58;;;6.93;;
63259;SDS011;49390;51.380;0.098;2022-10-16T15:39:16;8.75;;;3.78;;
63259;SDS011;49390;51.380;0.098;2022-10-16T15:41:46;10.97;;;3.53;;
63259;SDS011;49390;51.380;0.098;2022-10-16T15:44:18;18.75;;;4.18;;
63259;SDS011;49390;51.380;0.098;2022-10-16T15:46:47;14.25;;;3.45;;
63259;SDS011;49390;51.380;0.098;2022-10-16T15:49:15;10.35;;;2.85;;
63259;SDS011;49390;51.380;0.098;2022-10-16T15:51:43;10.98;;;3.35;;
63259;SDS011;49390;51.380;0.098;2022-10-16T15:54:12;11.13;;;3.80;;
63259;SDS011;49390;51.380;0.098;2022-10-16T15:56:42;13.43;;;3.75;;
63259;SDS011;49390;51.380;0.098;2022-10-16T15:59:15;14.90;;;3.88;;
63259;SDS011;49390;51.380;0.098;2022-10-16T16:01:46;14.40;;;3.90;;
63259;SDS011;49390;51.380;0.098;2022-10-16T16:04:14;10.55;;;2.80;;
63259;SDS011;49390;51.380;0.098;2022-10-16T16:07:04;11.43;;;3.17;;
63259;SDS011;49390;51.380;0.098;2022-10-16T16:09:34;8.27;;;2.60;;
63259;SDS011;49390;51.380;0.098;2022-10-16T16:12:02;8.82;;;2.70;;
63259;SDS011;49390;51.380;0.098;2022-10-16T16:14:32;11.80;;;2.90;;
63259;SDS011;49390;51.380;0.098;2022-10-16T16:17:01;12.38;;;2.78;;
63259;SDS011;49390;51.380;0.098;2022-10-16T16:19:29;9.85;;;3.05;;
63259;SDS011;49390;51.380;0.098;2022-10-16T16:21:59;11.02;;;3.03;;
63259;SDS011;49390;51.380;0.098;2022-10-16T16:24:27;10.32;;;2.72;;
63259;SDS011;49390;51.380;0.098;2022-10-16T16:26:54;9.70;;;2.88;;
63259;SDS011;49390;51.380;0.098;2022-10-16T16:29:22;7.93;;;3.33;;
63259;SDS011;49390;51.380;0.098;2022-10-16T16:31:50;9.93;;;2.97;;
63259;SDS011;49390;51.380;0.098;2022-10-16T16:34:25;10.82;;;3.35;;
63259;SDS011;49390;51.380;0.098;2022-10-16T16:36:54;10.10;;;3.35;;
63259;SDS011;49390;51.380;0.098;2022-10-16T16:39:23;11.82;;;3.55;;
63259;SDS011;49390;51.380;0.098;2022-10-16T16:41:51;12.50;;;2.90;;
63259;SDS011;49390;51.380;0.098;2022-10-16T16:44:22;8.73;;;3.40;;
63259;SDS011;49390;51.380;0.098;2022-10-16T16:46:50;11.38;;;3.08;;
63259;SDS011;49390;51.380;0.098;2022-10-16T16:49:18;7.40;;;2.83;;
63259;SDS011;49390;51.380;0.098;2022-10-16T16:51:49;12.55;;;3.65;;
63259;SDS011;49390;51.380;0.098;2022-10-16T16:54:17;10.05;;;3.45;;
63259;SDS011;49390;51.380;0.098;2022-10-16T16:56:45;10.30;;;3.58;;
63259;SDS011;49390;51.380;0.098;2022-10-16T16:59:14;16.17;;;6.25;;
63259;SDS011;49390;51.380;0.098;2022-10-16T17:04:13;17.33;;;4.85;;
63259;SDS011;49390;51.380;0.098;2022-10-16T17:06:48;13.60;;;5.53;;
63259;SDS011;49390;51.380;0.098;2022-10-16T17:09:16;24.00;;;10.98;;
63259;SDS011;49390;51.380;0.098;2022-10-16T17:11:44;18.05;;;8.38;;
63259;SDS011;49390;51.380;0.098;2022-10-16T17:14:14;14.55;;;6.72;;
63259;SDS011;49390;51.380;0.098;2022-10-16T17:16:42;12.18;;;4.70;;
63259;SDS011;49390;51.380;0.098;2022-10-16T17:19:13;10.18;;;3.30;;
63259;SDS011;49390;51.380;0.098;2022-10-16T17:21:43;12.82;;;3.80;;
63259;SDS011;49390;51.380;0.098;2022-10-16T17:24:13;9.95;;;3.22;;
63259;SDS011;49390;51.380;0.098;2022-10-16T17:26:42;13.10;;;4.97;;
63259;SDS011;49390;51.380;0.098;2022-10-16T17:29:16;15.70;;;4.60;;
63259;SDS011;49390;51.380;0.098;2022-10-16T17:31:47;16.30;;;6.47;;
63259;SDS011;49390;51.380;0.098;2022-10-16T17:34:16;17.35;;;5.15;;
63259;SDS011;49390;51.380;0.098;2022-10-16T17:36:44;11.52;;;3.97;;
63259;SDS011;49390;51.380;0.098;2022-10-16T17:39:14;17.20;;;8.10;;
63259;SDS011;49390;51.380;0.098;2022-10-16T17:41:45;19.35;;;8.65;;
63259;SDS011;49390;51.380;0.098;2022-10-16T17:44:14;17.85;;;6.05;;
63259;SDS011;49390;51.380;0.098;2022-10-16T17:46:47;12.57;;;4.93;;
63259;SDS011;49390;51.380;0.098;2022-10-16T17:49:17;10.73;;;3.80;;
63259;SDS011;49390;51.380;0.098;2022-10-16T17:51:48;10.90;;;3.97;;
63259;SDS011;49390;51.380;0.098;2022-10-16T17:54:18;14.15;;;4.30;;
63259;SDS011;49390;51.380;0.098;2022-10-16T17:56:46;13.88;;;5.00;;